St Charlotte — FWBM — position and weather

sailwx.info

Track history (hours):
 
Tides and Currents Weather Stations Pressure Air Temp Water Temp Dewpoint Dewpoint Depression Visibility Wind Speed Wind Dir Waves Ship Positions

St Charlotte

Last reported at 2014-Jul-31 01:30 UTC. Time now 2014-Aug-01 11:59 UTC.
Position N 49°55' W 001°07'.

Length 129 m; draft 8.1 m.

Type: Tanker. MMSI: 228331700.

Date/timePositionNaut miles runAvg speedWind from/ knotsBaromVisibWave heightAir tempDewpointWater temp
2014-Jul-31 01:30N 49°55' W 001°07'2911.9
2014-Jul-30 23:05N 49°39' W 000°30'611.5
2014-Jul-30 22:33N 49°34' W 000°24'1111.3
2014-Jul-30 21:34N 49°31' W 000°07'1010.1
2014-Jul-30 20:34N 49°28' E 000°08'2 1.9
2014-Jul-30 19:34N 49°29' E 000°11'0 0.3
2014-Jul-30 18:34N 49°29' E 000°11'0 0.0
2014-Jul-30 17:34N 49°29' E 000°11'0 0.0
2014-Jul-30 16:33N 49°29' E 000°11'0 0.0
2014-Jul-30 15:34N 49°29' E 000°11'0 0.0
2014-Jul-30 14:34N 49°29' E 000°11'0 0.0
2014-Jul-30 13:34N 49°29' E 000°11'0 0.0
2014-Jul-30 12:34N 49°29' E 000°11'0 0.0
2014-Jul-30 11:34N 49°29' E 000°11'0 0.0
2014-Jul-30 10:34N 49°29' E 000°11'0 0.0
2014-Jul-30 09:33N 49°29' E 000°11'0 0.0
2014-Jul-30 08:34N 49°29' E 000°11'0 0.0
2014-Jul-30 07:34N 49°29' E 000°11'0 0.0
2014-Jul-30 06:34N 49°29' E 000°11'0 0.0
2014-Jul-30 05:34N 49°29' E 000°11'0 0.0
2014-Jul-30 04:34N 49°29' E 000°11'0 0.0
2014-Jul-30 03:33N 49°29' E 000°11'0 0.0
2014-Jul-30 02:34N 49°29' E 000°11'0 0.0
2014-Jul-30 01:34N 49°29' E 000°11'1 0.5
2014-Jul-30 00:34N 49°29' E 000°10'0 0.5
2014-Jul-29 23:34N 49°28' E 000°10'2 1.7
2014-Jul-29 22:34N 49°28' E 000°07'6 6.0
2014-Jul-29 21:32N 49°29' W 000°02'0 0.1
2014-Jul-29 20:32N 49°29' W 000°02'0 0.0
2014-Jul-29 19:32N 49°29' W 000°02'0 0.0
2014-Jul-29 18:32N 49°29' W 000°02'0 0.0
2014-Jul-29 17:32N 49°29' W 000°02'0 0.0
2014-Jul-29 16:32N 49°29' W 000°02'0 0.0
2014-Jul-29 15:32N 49°29' W 000°02'0 0.0
2014-Jul-29 14:32N 49°29' W 000°02'0 0.0
2014-Jul-29 13:32N 49°29' W 000°02'0 0.0
2014-Jul-29 12:32N 49°29' W 000°02'0 0.0
2014-Jul-29 11:32N 49°29' W 000°02'0 0.0
2014-Jul-29 10:32N 49°29' W 000°02'0 0.0
2014-Jul-29 09:32N 49°29' W 000°02'0 0.0
2014-Jul-29 08:32N 49°29' W 000°02'0 0.0
2014-Jul-29 07:32N 49°29' W 000°02'0 0.1
2014-Jul-29 06:32N 49°29' W 000°02'0 0.0
2014-Jul-29 05:32N 49°29' W 000°02'0 0.0
2014-Jul-29 04:33N 49°29' W 000°02'1 0.8
2014-Jul-29 03:33N 49°29' W 000°04'9 8.7
2014-Jul-29 02:33N 49°38' W 000°06'1312.8
2014-Jul-29 01:30N 49°50' E 000°02'3511.9
2014-Jul-28 22:33N 50°18' E 000°35'1210.7
2014-Jul-28 21:25N 50°28' E 000°45'1112.7
2014-Jul-28 20:33N 50°39' E 000°48'2814.2
2014-Jul-28 18:33N 50°58' E 001°22'1514.6
2014-Jul-28 17:34N 51°08' E 001°38'1312.9
2014-Jul-28 16:34N 51°18' E 001°51'1211.7
2014-Jul-28 15:33N 51°28' E 002°02'1111.4
2014-Jul-28 14:33N 51°37' E 002°12'2311.3
2014-Jul-28 12:33N 51°55' E 002°36'11312.2
2014-Jul-28 03:17N 53°23' E 004°32'1212.4
2014-Jul-28 02:20N 53°34' E 004°38'2412.1
2014-Jul-28 00:21N 53°57' E 004°50'1011.9
2014-Jul-27 23:30N 54°06' E 004°57'1111.7
2014-Jul-27 22:33N 54°16' E 005°05'3511.6
2014-Jul-27 19:30N 54°47' E 005°35'1111.8
2014-Jul-27 18:33N 54°57' E 005°44'21011.6
2014-Jul-27 00:29N 57°38' E 009°46'1212.7
2014-Jul-26 23:33N 57°44' E 010°06'1313.1
2014-Jul-26 22:33N 57°47' E 010°29'1312.6
2014-Jul-26 21:33N 57°45' E 010°52'1414.2
2014-Jul-26 20:33N 57°35' E 011°12'1413.9
2014-Jul-26 19:33N 57°25' E 011°28'1413.8
2014-Jul-26 18:33N 57°12' E 011°37'1313.2
2014-Jul-26 17:33N 56°59' E 011°45'1413.7
2014-Jul-26 16:32N 56°46' E 011°54'1713.9
2014-Jul-26 15:21N 56°30' E 012°00'1013.2
2014-Jul-26 14:34N 56°20' E 012°05'1313.1
2014-Jul-26 13:34N 56°11' E 012°23'1414.0
2014-Jul-26 12:33N 56°01' E 012°41'1 1.4
2014-Jul-26 11:33N 56°01' E 012°43'0 0.0
2014-Jul-26 10:33N 56°01' E 012°43'0 0.0
2014-Jul-26 09:33N 56°01' E 012°43'0 0.0
2014-Jul-26 08:33N 56°01' E 012°43'0 0.0
2014-Jul-26 07:33N 56°01' E 012°43'0 0.0
2014-Jul-26 06:33N 56°01' E 012°43'0 0.0
2014-Jul-26 05:33N 56°01' E 012°43'0 0.0
2014-Jul-26 04:33N 56°01' E 012°43'0 0.0
2014-Jul-26 03:33N 56°01' E 012°43'0 0.0
2014-Jul-26 02:33N 56°01' E 012°43'0 0.0
2014-Jul-26 01:33N 56°01' E 012°43'0 0.0
2014-Jul-26 00:33N 56°01' E 012°43'0 0.0
2014-Jul-25 23:33N 56°01' E 012°43'0 0.0
2014-Jul-25 22:33N 56°01' E 012°43'0 0.0
2014-Jul-25 21:33N 56°01' E 012°43'0 0.0
2014-Jul-25 20:33N 56°01' E 012°43'0 0.0
2014-Jul-25 19:33N 56°01' E 012°43'0 0.0
2014-Jul-25 18:33N 56°01' E 012°43'0 0.0
2014-Jul-25 17:33N 56°01' E 012°43'0 0.0
2014-Jul-25 16:33N 56°01' E 012°43'0 0.0
2014-Jul-25 15:33N 56°01' E 012°43'0 0.0
2014-Jul-25 14:33N 56°01' E 012°43'0 0.1
2014-Jul-25 13:33N 56°00' E 012°43'3 2.9
2014-Jul-25 12:33N 56°03' E 012°39'9 9.2
2014-Jul-25 11:33N 56°09' E 012°27'1111.2
2014-Jul-25 10:33N 56°12' E 012°07'1212.3
2014-Jul-25 09:33N 56°09' E 011°46'1211.6
2014-Jul-25 08:32N 56°08' E 011°25'1010.4
2014-Jul-25 07:33N 56°04' E 011°08'1212.2
2014-Jul-25 06:33N 55°54' E 010°56'1212.0
2014-Jul-25 05:33N 55°43' E 010°47'1110.8
2014-Jul-25 04:33N 55°32' E 010°51'1212.4
2014-Jul-25 03:33N 55°21' E 011°03'1111.4
2014-Jul-25 02:33N 55°10' E 011°04'1212.1
2014-Jul-25 01:33N 54°58' E 010°59'1211.6
2014-Jul-25 00:33N 54°47' E 010°52'1111.1
2014-Jul-24 23:33N 54°37' E 010°43'1311.9
2014-Jul-24 22:28N 54°31' E 010°24'41 5.8
2014-Jul-24 15:30N 54°10' E 009°25'8 5.8
2014-Jul-24 14:09N 54°03' E 009°18'0 0.5
2014-Jul-24 13:30N 54°03' E 009°18'4 4.7
2014-Jul-24 12:33N 53°58' E 009°16'6 5.9
2014-Jul-24 11:30N 53°54' E 009°09'0 0.2
2014-Jul-24 10:29N 53°54' E 009°08'1 1.5
2014-Jul-24 09:33N 53°53' E 009°06'0 0.2
2014-Jul-24 08:33N 53°53' E 009°07'7 6.9
2014-Jul-24 07:33N 53°51' E 008°56'1312.8
2014-Jul-24 06:33N 53°57' E 008°37'1413.7
2014-Jul-24 05:33N 53°60' E 008°14'1211.8
2014-Jul-24 04:33N 53°55' E 007°56'8 8.4
2014-Jul-24 03:33N 53°49' E 008°06'1313.2
2014-Jul-24 02:34N 53°40' E 008°22'1111.2
2014-Jul-24 01:33N 53°31' E 008°32'10 0.3
2014-Jul-22 16:34N 53°21' E 008°30'7 7.4
2014-Jul-22 15:34N 53°28' E 008°30'8 7.9
2014-Jul-22 14:34N 53°36' E 008°31'1312.5
2014-Jul-22 13:33N 53°44' E 008°15'1212.3
2014-Jul-22 12:33N 53°51' E 007°58'1311.3
2014-Jul-22 11:26N 53°54' E 007°37'8 9.5
2014-Jul-22 10:33N 53°53' E 007°23'19 9.2
2014-Jul-22 08:31N 53°49' E 006°52'18 9.1
2014-Jul-22 06:33N 53°45' E 006°22'10 9.6
2014-Jul-22 05:33N 53°42' E 006°07'1010.4
2014-Jul-22 04:33N 53°38' E 005°50'1110.6
2014-Jul-22 03:34N 53°35' E 005°33'1110.7
2014-Jul-22 02:33N 53°32' E 005°16'1110.9
2014-Jul-22 01:33N 53°28' E 004°59'1010.4
2014-Jul-22 00:34N 53°23' E 004°43'1111.1
2014-Jul-21 23:33N 53°13' E 004°35'1211.2
2014-Jul-21 22:31N 53°03' E 004°25'1111.0
2014-Jul-21 21:33N 52°54' E 004°17'1211.1
2014-Jul-21 20:28N 52°44' E 004°06'211.0
2014-Jul-21 20:17N 52°42' E 004°04'811.0
2014-Jul-21 19:33N 52°37' E 003°54'1110.9
2014-Jul-21 18:33N 52°29' E 003°41'7210.2
2014-Jul-21 11:29N 51°27' E 002°43'5 4.5
2014-Jul-21 10:25N 51°25' E 002°36'0 0.1
2014-Jul-21 09:22N 51°25' E 002°36'0 0.0
2014-Jul-21 08:28N 51°25' E 002°36'0 0.1
2014-Jul-21 07:25N 51°25' E 002°36'0 0.0
2014-Jul-21 06:25N 51°25' E 002°35'0 0.0
2014-Jul-21 05:31N 51°25' E 002°35'0 0.1
2014-Jul-21 04:25N 51°25' E 002°35'0 0.0
2014-Jul-21 03:31N 51°25' E 002°35'0 0.0
2014-Jul-21 02:28N 51°25' E 002°35'0 0.0
2014-Jul-21 01:34N 51°25' E 002°35'  
Track history (hours):
 
Tides and Currents Weather Stations Pressure Air Temp Water Temp Dewpoint Dewpoint Depression Visibility Wind Speed Wind Dir Waves Ship Positions

St Charlotte

Last reported at 2014-Jul-31 01:30 UTC. Time now 2014-Aug-01 11:59 UTC.
Position N 49°55' W 001°07'.

Length 129 m; draft 8.1 m.

Type: Tanker. MMSI: 228331700.

Date/timePositionNaut miles runAvg speedWind from/ knotsBaromVisibWave heightAir tempDewpointWater temp
2014-Jul-31 01:30N 49°55' W 001°07'2911.9
2014-Jul-30 23:05N 49°39' W 000°30'611.5
2014-Jul-30 22:33N 49°34' W 000°24'1111.3
2014-Jul-30 21:34N 49°31' W 000°07'1010.1
2014-Jul-30 20:34N 49°28' E 000°08'2 1.9
2014-Jul-30 19:34N 49°29' E 000°11'0 0.3
2014-Jul-30 18:34N 49°29' E 000°11'0 0.0
2014-Jul-30 17:34N 49°29' E 000°11'0 0.0
2014-Jul-30 16:33N 49°29' E 000°11'0 0.0
2014-Jul-30 15:34N 49°29' E 000°11'0 0.0
2014-Jul-30 14:34N 49°29' E 000°11'0 0.0
2014-Jul-30 13:34N 49°29' E 000°11'0 0.0
2014-Jul-30 12:34N 49°29' E 000°11'0 0.0
2014-Jul-30 11:34N 49°29' E 000°11'0 0.0
2014-Jul-30 10:34N 49°29' E 000°11'0 0.0
2014-Jul-30 09:33N 49°29' E 000°11'0 0.0
2014-Jul-30 08:34N 49°29' E 000°11'0 0.0
2014-Jul-30 07:34N 49°29' E 000°11'0 0.0
2014-Jul-30 06:34N 49°29' E 000°11'0 0.0
2014-Jul-30 05:34N 49°29' E 000°11'0 0.0
2014-Jul-30 04:34N 49°29' E 000°11'0 0.0
2014-Jul-30 03:33N 49°29' E 000°11'0 0.0
2014-Jul-30 02:34N 49°29' E 000°11'0 0.0
2014-Jul-30 01:34N 49°29' E 000°11'1 0.5
2014-Jul-30 00:34N 49°29' E 000°10'0 0.5
2014-Jul-29 23:34N 49°28' E 000°10'2 1.7
2014-Jul-29 22:34N 49°28' E 000°07'6 6.0
2014-Jul-29 21:32N 49°29' W 000°02'0 0.1
2014-Jul-29 20:32N 49°29' W 000°02'0 0.0
2014-Jul-29 19:32N 49°29' W 000°02'0 0.0
2014-Jul-29 18:32N 49°29' W 000°02'0 0.0
2014-Jul-29 17:32N 49°29' W 000°02'0 0.0
2014-Jul-29 16:32N 49°29' W 000°02'0 0.0
2014-Jul-29 15:32N 49°29' W 000°02'0 0.0
2014-Jul-29 14:32N 49°29' W 000°02'0 0.0
2014-Jul-29 13:32N 49°29' W 000°02'0 0.0
2014-Jul-29 12:32N 49°29' W 000°02'0 0.0
2014-Jul-29 11:32N 49°29' W 000°02'0 0.0
2014-Jul-29 10:32N 49°29' W 000°02'0 0.0
2014-Jul-29 09:32N 49°29' W 000°02'0 0.0
2014-Jul-29 08:32N 49°29' W 000°02'0 0.0
2014-Jul-29 07:32N 49°29' W 000°02'0 0.1
2014-Jul-29 06:32N 49°29' W 000°02'0 0.0
2014-Jul-29 05:32N 49°29' W 000°02'0 0.0
2014-Jul-29 04:33N 49°29' W 000°02'1 0.8
2014-Jul-29 03:33N 49°29' W 000°04'9 8.7
2014-Jul-29 02:33N 49°38' W 000°06'1312.8
2014-Jul-29 01:30N 49°50' E 000°02'3511.9
2014-Jul-28 22:33N 50°18' E 000°35'1210.7
2014-Jul-28 21:25N 50°28' E 000°45'1112.7
2014-Jul-28 20:33N 50°39' E 000°48'2814.2
2014-Jul-28 18:33N 50°58' E 001°22'1514.6
2014-Jul-28 17:34N 51°08' E 001°38'1312.9
2014-Jul-28 16:34N 51°18' E 001°51'1211.7
2014-Jul-28 15:33N 51°28' E 002°02'1111.4
2014-Jul-28 14:33N 51°37' E 002°12'2311.3
2014-Jul-28 12:33N 51°55' E 002°36'11312.2
2014-Jul-28 03:17N 53°23' E 004°32'1212.4
2014-Jul-28 02:20N 53°34' E 004°38'2412.1
2014-Jul-28 00:21N 53°57' E 004°50'1011.9
2014-Jul-27 23:30N 54°06' E 004°57'1111.7
2014-Jul-27 22:33N 54°16' E 005°05'3511.6
2014-Jul-27 19:30N 54°47' E 005°35'1111.8
2014-Jul-27 18:33N 54°57' E 005°44'21011.6
2014-Jul-27 00:29N 57°38' E 009°46'1212.7
2014-Jul-26 23:33N 57°44' E 010°06'1313.1
2014-Jul-26 22:33N 57°47' E 010°29'1312.6
2014-Jul-26 21:33N 57°45' E 010°52'1414.2
2014-Jul-26 20:33N 57°35' E 011°12'1413.9
2014-Jul-26 19:33N 57°25' E 011°28'1413.8
2014-Jul-26 18:33N 57°12' E 011°37'1313.2
2014-Jul-26 17:33N 56°59' E 011°45'1413.7
2014-Jul-26 16:32N 56°46' E 011°54'1713.9
2014-Jul-26 15:21N 56°30' E 012°00'1013.2
2014-Jul-26 14:34N 56°20' E 012°05'1313.1
2014-Jul-26 13:34N 56°11' E 012°23'1414.0
2014-Jul-26 12:33N 56°01' E 012°41'1 1.4
2014-Jul-26 11:33N 56°01' E 012°43'0 0.0
2014-Jul-26 10:33N 56°01' E 012°43'0 0.0
2014-Jul-26 09:33N 56°01' E 012°43'0 0.0
2014-Jul-26 08:33N 56°01' E 012°43'0 0.0
2014-Jul-26 07:33N 56°01' E 012°43'0 0.0
2014-Jul-26 06:33N 56°01' E 012°43'0 0.0
2014-Jul-26 05:33N 56°01' E 012°43'0 0.0
2014-Jul-26 04:33N 56°01' E 012°43'0 0.0
2014-Jul-26 03:33N 56°01' E 012°43'0 0.0
2014-Jul-26 02:33N 56°01' E 012°43'0 0.0
2014-Jul-26 01:33N 56°01' E 012°43'0 0.0
2014-Jul-26 00:33N 56°01' E 012°43'0 0.0
2014-Jul-25 23:33N 56°01' E 012°43'0 0.0
2014-Jul-25 22:33N 56°01' E 012°43'0 0.0
2014-Jul-25 21:33N 56°01' E 012°43'0 0.0
2014-Jul-25 20:33N 56°01' E 012°43'0 0.0
2014-Jul-25 19:33N 56°01' E 012°43'0 0.0
2014-Jul-25 18:33N 56°01' E 012°43'0 0.0
2014-Jul-25 17:33N 56°01' E 012°43'0 0.0
2014-Jul-25 16:33N 56°01' E 012°43'0 0.0
2014-Jul-25 15:33N 56°01' E 012°43'0 0.0
2014-Jul-25 14:33N 56°01' E 012°43'0 0.1
2014-Jul-25 13:33N 56°00' E 012°43'3 2.9
2014-Jul-25 12:33N 56°03' E 012°39'9 9.2
2014-Jul-25 11:33N 56°09' E 012°27'1111.2
2014-Jul-25 10:33N 56°12' E 012°07'1212.3
2014-Jul-25 09:33N 56°09' E 011°46'1211.6
2014-Jul-25 08:32N 56°08' E 011°25'1010.4
2014-Jul-25 07:33N 56°04' E 011°08'1212.2
2014-Jul-25 06:33N 55°54' E 010°56'1212.0
2014-Jul-25 05:33N 55°43' E 010°47'1110.8
2014-Jul-25 04:33N 55°32' E 010°51'1212.4
2014-Jul-25 03:33N 55°21' E 011°03'1111.4
2014-Jul-25 02:33N 55°10' E 011°04'1212.1
2014-Jul-25 01:33N 54°58' E 010°59'1211.6
2014-Jul-25 00:33N 54°47' E 010°52'1111.1
2014-Jul-24 23:33N 54°37' E 010°43'1311.9
2014-Jul-24 22:28N 54°31' E 010°24'41 5.8
2014-Jul-24 15:30N 54°10' E 009°25'8 5.8
2014-Jul-24 14:09N 54°03' E 009°18'0 0.5
2014-Jul-24 13:30N 54°03' E 009°18'4 4.7
2014-Jul-24 12:33N 53°58' E 009°16'6 5.9
2014-Jul-24 11:30N 53°54' E 009°09'0 0.2
2014-Jul-24 10:29N 53°54' E 009°08'1 1.5
2014-Jul-24 09:33N 53°53' E 009°06'0 0.2
2014-Jul-24 08:33N 53°53' E 009°07'7 6.9
2014-Jul-24 07:33N 53°51' E 008°56'1312.8
2014-Jul-24 06:33N 53°57' E 008°37'1413.7
2014-Jul-24 05:33N 53°60' E 008°14'1211.8
2014-Jul-24 04:33N 53°55' E 007°56'8 8.4
2014-Jul-24 03:33N 53°49' E 008°06'1313.2
2014-Jul-24 02:34N 53°40' E 008°22'1111.2
2014-Jul-24 01:33N 53°31' E 008°32'10 0.3
2014-Jul-22 16:34N 53°21' E 008°30'7 7.4
2014-Jul-22 15:34N 53°28' E 008°30'8 7.9
2014-Jul-22 14:34N 53°36' E 008°31'1312.5
2014-Jul-22 13:33N 53°44' E 008°15'1212.3
2014-Jul-22 12:33N 53°51' E 007°58'1311.3
2014-Jul-22 11:26N 53°54' E 007°37'8 9.5
2014-Jul-22 10:33N 53°53' E 007°23'19 9.2
2014-Jul-22 08:31N 53°49' E 006°52'18 9.1
2014-Jul-22 06:33N 53°45' E 006°22'10 9.6
2014-Jul-22 05:33N 53°42' E 006°07'1010.4
2014-Jul-22 04:33N 53°38' E 005°50'1110.6
2014-Jul-22 03:34N 53°35' E 005°33'1110.7
2014-Jul-22 02:33N 53°32' E 005°16'1110.9
2014-Jul-22 01:33N 53°28' E 004°59'1010.4
2014-Jul-22 00:34N 53°23' E 004°43'1111.1
2014-Jul-21 23:33N 53°13' E 004°35'1211.2
2014-Jul-21 22:31N 53°03' E 004°25'1111.0
2014-Jul-21 21:33N 52°54' E 004°17'1211.1
2014-Jul-21 20:28N 52°44' E 004°06'211.0
2014-Jul-21 20:17N 52°42' E 004°04'811.0
2014-Jul-21 19:33N 52°37' E 003°54'1110.9
2014-Jul-21 18:33N 52°29' E 003°41'7210.2
2014-Jul-21 11:29N 51°27' E 002°43'5 4.5
2014-Jul-21 10:25N 51°25' E 002°36'0 0.1
2014-Jul-21 09:22N 51°25' E 002°36'0 0.0
2014-Jul-21 08:28N 51°25' E 002°36'0 0.1
2014-Jul-21 07:25N 51°25' E 002°36'0 0.0
2014-Jul-21 06:25N 51°25' E 002°35'0 0.0
2014-Jul-21 05:31N 51°25' E 002°35'0 0.1
2014-Jul-21 04:25N 51°25' E 002°35'0 0.0
2014-Jul-21 03:31N 51°25' E 002°35'0 0.0
2014-Jul-21 02:28N 51°25' E 002°35'0 0.0
2014-Jul-21 01:34N 51°25' E 002°35'  

Dump ship's entire track history